sensor_id;sensor_type;location;lat;lon;timestamp;P1;durP1;ratioP1;P2;durP2;ratioP2
47772;SDS011;33534;51.028;13.716;2022-12-07T00:04:25;14.52;;;9.27;;
47772;SDS011;33534;51.028;13.716;2022-12-07T00:06:51;14.10;;;8.95;;
47772;SDS011;33534;51.028;13.716;2022-12-07T00:09:18;14.13;;;9.63;;
47772;SDS011;33534;51.028;13.716;2022-12-07T00:11:44;14.55;;;9.63;;
47772;SDS011;33534;51.028;13.716;2022-12-07T00:14:21;16.98;;;10.50;;
47772;SDS011;33534;51.028;13.716;2022-12-07T00:16:50;13.65;;;9.15;;
47772;SDS011;33534;51.028;13.716;2022-12-07T00:19:16;16.08;;;9.73;;
47772;SDS011;33534;51.028;13.716;2022-12-07T00:21:45;13.82;;;9.55;;
47772;SDS011;33534;51.028;13.716;2022-12-07T00:24:14;14.93;;;9.98;;
47772;SDS011;33534;51.028;13.716;2022-12-07T00:29:14;15.90;;;9.55;;
47772;SDS011;33534;51.028;13.716;2022-12-07T00:31:46;16.05;;;9.90;;
47772;SDS011;33534;51.028;13.716;2022-12-07T00:34:17;15.90;;;9.65;;
47772;SDS011;33534;51.028;13.716;2022-12-07T00:36:48;13.30;;;9.15;;
47772;SDS011;33534;51.028;13.716;2022-12-07T00:39:22;15.35;;;10.77;;
47772;SDS011;33534;51.028;13.716;2022-12-07T00:41:48;15.73;;;9.98;;
47772;SDS011;33534;51.028;13.716;2022-12-07T00:44:23;16.67;;;10.80;;
47772;SDS011;33534;51.028;13.716;2022-12-07T00:46:54;15.80;;;10.43;;
47772;SDS011;33534;51.028;13.716;2022-12-07T00:49:26;15.75;;;9.60;;
47772;SDS011;33534;51.028;13.716;2022-12-07T00:51:52;16.35;;;10.00;;
47772;SDS011;33534;51.028;13.716;2022-12-07T00:54:23;16.52;;;10.77;;
47772;SDS011;33534;51.028;13.716;2022-12-07T00:56:50;15.63;;;9.77;;
47772;SDS011;33534;51.028;13.716;2022-12-07T00:59:21;16.55;;;10.43;;
47772;SDS011;33534;51.028;13.716;2022-12-07T01:01:50;16.85;;;10.90;;
47772;SDS011;33534;51.028;13.716;2022-12-07T01:04:16;18.35;;;10.98;;
47772;SDS011;33534;51.028;13.716;2022-12-07T01:06:42;15.85;;;10.63;;
47772;SDS011;33534;51.028;13.716;2022-12-07T01:09:08;18.33;;;11.20;;
47772;SDS011;33534;51.028;13.716;2022-12-07T01:11:34;17.00;;;11.18;;
47772;SDS011;33534;51.028;13.716;2022-12-07T01:14:01;16.80;;;10.43;;
47772;SDS011;33534;51.028;13.716;2022-12-07T01:16:27;19.08;;;10.60;;
47772;SDS011;33534;51.028;13.716;2022-12-07T01:18:57;20.27;;;11.43;;
47772;SDS011;33534;51.028;13.716;2022-12-07T01:21:25;19.42;;;11.60;;
47772;SDS011;33534;51.028;13.716;2022-12-07T01:23:54;18.10;;;10.73;;
47772;SDS011;33534;51.028;13.716;2022-12-07T01:26:22;19.00;;;11.13;;
47772;SDS011;33534;51.028;13.716;2022-12-07T01:28:52;18.58;;;11.85;;
47772;SDS011;33534;51.028;13.716;2022-12-07T01:33:48;21.33;;;11.93;;
47772;SDS011;33534;51.028;13.716;2022-12-07T01:36:17;17.02;;;10.63;;
47772;SDS011;33534;51.028;13.716;2022-12-07T01:38:43;18.92;;;11.07;;
47772;SDS011;33534;51.028;13.716;2022-12-07T01:41:10;16.85;;;10.35;;
47772;SDS011;33534;51.028;13.716;2022-12-07T01:43:36;15.73;;;10.48;;
47772;SDS011;33534;51.028;13.716;2022-12-07T01:46:03;18.02;;;10.77;;
47772;SDS011;33534;51.028;13.716;2022-12-07T01:48:36;19.52;;;11.85;;
47772;SDS011;33534;51.028;13.716;2022-12-07T01:51:05;16.38;;;9.93;;
47772;SDS011;33534;51.028;13.716;2022-12-07T01:53:32;13.07;;;9.07;;
47772;SDS011;33534;51.028;13.716;2022-12-07T01:56:06;15.95;;;9.55;;
47772;SDS011;33534;51.028;13.716;2022-12-07T01:58:34;14.95;;;9.38;;
47772;SDS011;33534;51.028;13.716;2022-12-07T02:01:03;14.98;;;9.88;;
47772;SDS011;33534;51.028;13.716;2022-12-07T02:03:34;16.60;;;10.75;;
47772;SDS011;33534;51.028;13.716;2022-12-07T02:06:04;18.23;;;10.32;;
47772;SDS011;33534;51.028;13.716;2022-12-07T02:08:33;14.57;;;9.93;;
47772;SDS011;33534;51.028;13.716;2022-12-07T02:11:05;18.67;;;10.75;;
47772;SDS011;33534;51.028;13.716;2022-12-07T02:13:42;16.33;;;9.48;;
47772;SDS011;33534;51.028;13.716;2022-12-07T02:39:55;15.93;;;9.38;;
47772;SDS011;33534;51.028;13.716;2022-12-07T02:42:26;17.87;;;11.53;;
47772;SDS011;33534;51.028;13.716;2022-12-07T02:44:53;16.65;;;10.70;;
47772;SDS011;33534;51.028;13.716;2022-12-07T02:47:20;17.70;;;11.18;;
47772;SDS011;33534;51.028;13.716;2022-12-07T02:49:47;17.15;;;10.70;;
47772;SDS011;33534;51.028;13.716;2022-12-07T02:52:15;17.80;;;11.10;;
47772;SDS011;33534;51.028;13.716;2022-12-07T03:07:51;20.50;;;12.20;;
47772;SDS011;33534;51.028;13.716;2022-12-07T03:12:35;19.80;;;12.18;;
47772;SDS011;33534;51.028;13.716;2022-12-07T03:15:08;19.10;;;13.07;;
47772;SDS011;33534;51.028;13.716;2022-12-07T03:17:37;20.00;;;12.52;;
47772;SDS011;33534;51.028;13.716;2022-12-07T03:20:04;20.55;;;12.93;;
47772;SDS011;33534;51.028;13.716;2022-12-07T03:22:32;20.60;;;13.90;;
47772;SDS011;33534;51.028;13.716;2022-12-07T03:25:02;19.40;;;12.68;;
47772;SDS011;33534;51.028;13.716;2022-12-07T03:27:33;19.88;;;13.07;;
47772;SDS011;33534;51.028;13.716;2022-12-07T03:32:37;22.52;;;13.43;;
47772;SDS011;33534;51.028;13.716;2022-12-07T03:37:59;21.98;;;13.50;;
47772;SDS011;33534;51.028;13.716;2022-12-07T03:40:37;25.42;;;15.13;;
47772;SDS011;33534;51.028;13.716;2022-12-07T03:43:05;22.25;;;14.20;;
47772;SDS011;33534;51.028;13.716;2022-12-07T03:45:38;24.58;;;14.60;;
47772;SDS011;33534;51.028;13.716;2022-12-07T03:48:12;23.20;;;14.32;;
47772;SDS011;33534;51.028;13.716;2022-12-07T03:50:55;22.58;;;13.27;;
47772;SDS011;33534;51.028;13.716;2022-12-07T03:53:27;21.70;;;13.63;;
47772;SDS011;33534;51.028;13.716;2022-12-07T03:56:01;25.50;;;14.57;;
47772;SDS011;33534;51.028;13.716;2022-12-07T03:58:27;21.27;;;12.82;;
47772;SDS011;33534;51.028;13.716;2022-12-07T04:00:56;20.33;;;12.63;;
47772;SDS011;33534;51.028;13.716;2022-12-07T04:03:25;23.77;;;13.82;;
47772;SDS011;33534;51.028;13.716;2022-12-07T04:05:51;19.45;;;12.70;;
47772;SDS011;33534;51.028;13.716;2022-12-07T04:08:20;22.58;;;14.52;;
47772;SDS011;33534;51.028;13.716;2022-12-07T04:10:49;21.92;;;13.35;;
47772;SDS011;33534;51.028;13.716;2022-12-07T04:13:15;19.15;;;12.48;;
47772;SDS011;33534;51.028;13.716;2022-12-07T04:15:41;20.55;;;13.18;;
47772;SDS011;33534;51.028;13.716;2022-12-07T04:18:10;23.67;;;13.55;;
47772;SDS011;33534;51.028;13.716;2022-12-07T04:20:36;21.23;;;12.77;;
47772;SDS011;33534;51.028;13.716;2022-12-07T04:23:10;20.70;;;12.07;;
47772;SDS011;33534;51.028;13.716;2022-12-07T04:25:38;21.33;;;11.93;;
47772;SDS011;33534;51.028;13.716;2022-12-07T04:28:07;18.25;;;11.77;;
47772;SDS011;33534;51.028;13.716;2022-12-07T04:30:36;22.77;;;13.18;;
47772;SDS011;33534;51.028;13.716;2022-12-07T04:33:02;20.85;;;12.73;;
47772;SDS011;33534;51.028;13.716;2022-12-07T04:35:28;20.77;;;13.27;;
47772;SDS011;33534;51.028;13.716;2022-12-07T04:37:58;22.67;;;13.32;;
47772;SDS011;33534;51.028;13.716;2022-12-07T04:40:24;21.60;;;13.07;;
47772;SDS011;33534;51.028;13.716;2022-12-07T04:42:50;18.95;;;11.30;;
47772;SDS011;33534;51.028;13.716;2022-12-07T04:45:22;20.85;;;12.75;;
47772;SDS011;33534;51.028;13.716;2022-12-07T04:47:50;19.10;;;11.75;;
47772;SDS011;33534;51.028;13.716;2022-12-07T04:50:16;19.17;;;12.02;;
47772;SDS011;33534;51.028;13.716;2022-12-07T04:52:42;20.27;;;12.02;;
47772;SDS011;33534;51.028;13.716;2022-12-07T04:55:08;21.02;;;11.45;;
47772;SDS011;33534;51.028;13.716;2022-12-07T04:57:35;21.08;;;11.98;;
47772;SDS011;33534;51.028;13.716;2022-12-07T05:00:04;20.48;;;11.45;;
47772;SDS011;33534;51.028;13.716;2022-12-07T05:02:32;17.48;;;10.57;;
47772;SDS011;33534;51.028;13.716;2022-12-07T05:05:01;19.75;;;11.40;;
47772;SDS011;33534;51.028;13.716;2022-12-07T05:07:30;17.98;;;10.82;;
47772;SDS011;33534;51.028;13.716;2022-12-07T05:12:45;18.90;;;11.02;;
47772;SDS011;33534;51.028;13.716;2022-12-07T05:15:12;15.77;;;10.65;;
47772;SDS011;33534;51.028;13.716;2022-12-07T05:17:41;16.23;;;10.27;;
47772;SDS011;33534;51.028;13.716;2022-12-07T05:20:08;17.73;;;10.18;;
47772;SDS011;33534;51.028;13.716;2022-12-07T05:22:36;16.15;;;10.00;;
47772;SDS011;33534;51.028;13.716;2022-12-07T05:25:02;19.75;;;11.25;;
47772;SDS011;33534;51.028;13.716;2022-12-07T05:27:29;16.40;;;10.05;;
47772;SDS011;33534;51.028;13.716;2022-12-07T05:29:55;16.55;;;10.55;;
47772;SDS011;33534;51.028;13.716;2022-12-07T05:32:21;17.13;;;10.32;;
47772;SDS011;33534;51.028;13.716;2022-12-07T05:34:53;20.88;;;11.40;;
47772;SDS011;33534;51.028;13.716;2022-12-07T05:37:23;18.70;;;10.40;;
47772;SDS011;33534;51.028;13.716;2022-12-07T05:40:02;16.13;;;10.00;;
47772;SDS011;33534;51.028;13.716;2022-12-07T05:44:59;11.88;;;7.75;;
47772;SDS011;33534;51.028;13.716;2022-12-07T05:47:25;13.73;;;8.75;;
47772;SDS011;33534;51.028;13.716;2022-12-07T05:49:51;14.35;;;8.63;;
47772;SDS011;33534;51.028;13.716;2022-12-07T05:52:18;12.75;;;7.70;;
47772;SDS011;33534;51.028;13.716;2022-12-07T05:54:46;12.18;;;7.60;;
47772;SDS011;33534;51.028;13.716;2022-12-07T05:57:12;11.85;;;7.28;;
47772;SDS011;33534;51.028;13.716;2022-12-07T05:59:39;9.57;;;6.80;;
47772;SDS011;33534;51.028;13.716;2022-12-07T06:02:09;12.23;;;6.35;;
47772;SDS011;33534;51.028;13.716;2022-12-07T06:04:39;12.20;;;7.10;;
47772;SDS011;33534;51.028;13.716;2022-12-07T06:07:14;10.27;;;7.78;;
47772;SDS011;33534;51.028;13.716;2022-12-07T06:09:42;10.68;;;6.28;;
47772;SDS011;33534;51.028;13.716;2022-12-07T06:12:11;10.90;;;6.80;;
47772;SDS011;33534;51.028;13.716;2022-12-07T06:14:56;9.32;;;5.90;;
47772;SDS011;33534;51.028;13.716;2022-12-07T06:17:22;11.13;;;5.75;;
47772;SDS011;33534;51.028;13.716;2022-12-07T06:19:52;11.25;;;6.85;;
47772;SDS011;33534;51.028;13.716;2022-12-07T06:22:23;9.10;;;6.05;;
47772;SDS011;33534;51.028;13.716;2022-12-07T06:24:58;10.82;;;6.07;;
47772;SDS011;33534;51.028;13.716;2022-12-07T06:27:29;10.02;;;6.03;;
47772;SDS011;33534;51.028;13.716;2022-12-07T06:30:03;10.25;;;6.80;;
47772;SDS011;33534;51.028;13.716;2022-12-07T06:32:32;11.48;;;6.30;;
47772;SDS011;33534;51.028;13.716;2022-12-07T06:35:00;11.35;;;5.57;;
47772;SDS011;33534;51.028;13.716;2022-12-07T06:37:26;9.27;;;5.70;;
47772;SDS011;33534;51.028;13.716;2022-12-07T06:39:52;7.05;;;5.40;;
47772;SDS011;33534;51.028;13.716;2022-12-07T06:42:21;8.38;;;6.05;;
47772;SDS011;33534;51.028;13.716;2022-12-07T06:44:49;9.60;;;5.90;;
47772;SDS011;33534;51.028;13.716;2022-12-07T06:47:16;9.82;;;5.75;;
47772;SDS011;33534;51.028;13.716;2022-12-07T06:49:48;9.15;;;6.10;;
47772;SDS011;33534;51.028;13.716;2022-12-07T06:52:16;10.40;;;6.20;;
47772;SDS011;33534;51.028;13.716;2022-12-07T06:54:42;9.82;;;6.18;;
47772;SDS011;33534;51.028;13.716;2022-12-07T06:57:09;8.70;;;5.55;;
47772;SDS011;33534;51.028;13.716;2022-12-07T06:59:38;8.60;;;5.97;;
47772;SDS011;33534;51.028;13.716;2022-12-07T07:02:05;9.23;;;6.63;;
47772;SDS011;33534;51.028;13.716;2022-12-07T07:04:31;7.53;;;5.35;;
47772;SDS011;33534;51.028;13.716;2022-12-07T07:06:59;7.60;;;5.68;;
47772;SDS011;33534;51.028;13.716;2022-12-07T07:09:28;8.07;;;5.80;;
47772;SDS011;33534;51.028;13.716;2022-12-07T07:11:54;7.10;;;5.55;;
47772;SDS011;33534;51.028;13.716;2022-12-07T07:14:22;8.63;;;5.90;;
47772;SDS011;33534;51.028;13.716;2022-12-07T07:16:49;11.10;;;6.43;;
47772;SDS011;33534;51.028;13.716;2022-12-07T07:19:17;10.73;;;6.53;;
47772;SDS011;33534;51.028;13.716;2022-12-07T07:21:45;10.07;;;7.05;;
47772;SDS011;33534;51.028;13.716;2022-12-07T07:24:14;10.15;;;6.78;;
47772;SDS011;33534;51.028;13.716;2022-12-07T07:26:40;10.57;;;7.40;;
47772;SDS011;33534;51.028;13.716;2022-12-07T07:29:06;10.38;;;7.18;;
47772;SDS011;33534;51.028;13.716;2022-12-07T07:31:32;11.10;;;7.43;;
47772;SDS011;33534;51.028;13.716;2022-12-07T07:34:00;12.57;;;7.35;;
47772;SDS011;33534;51.028;13.716;2022-12-07T07:36:29;11.93;;;7.63;;
47772;SDS011;33534;51.028;13.716;2022-12-07T07:38:57;10.43;;;6.95;;
47772;SDS011;33534;51.028;13.716;2022-12-07T07:41:29;11.65;;;8.10;;
47772;SDS011;33534;51.028;13.716;2022-12-07T07:43:55;10.68;;;7.13;;
47772;SDS011;33534;51.028;13.716;2022-12-07T07:46:33;10.63;;;7.00;;
47772;SDS011;33534;51.028;13.716;2022-12-07T07:49:10;9.13;;;6.53;;
47772;SDS011;33534;51.028;13.716;2022-12-07T07:51:39;10.38;;;7.07;;
47772;SDS011;33534;51.028;13.716;2022-12-07T08:06:59;13.20;;;8.95;;
47772;SDS011;33534;51.028;13.716;2022-12-07T08:09:37;13.43;;;9.55;;
47772;SDS011;33534;51.028;13.716;2022-12-07T08:12:16;14.40;;;9.57;;
47772;SDS011;33534;51.028;13.716;2022-12-07T08:20:58;12.77;;;9.35;;
47772;SDS011;33534;51.028;13.716;2022-12-07T08:23:38;14.82;;;10.82;;
47772;SDS011;33534;51.028;13.716;2022-12-07T08:26:09;14.25;;;10.40;;
47772;SDS011;33534;51.028;13.716;2022-12-07T08:28:58;13.80;;;9.52;;
47772;SDS011;33534;51.028;13.716;2022-12-07T08:31:35;13.98;;;10.07;;
47772;SDS011;33534;51.028;13.716;2022-12-07T08:34:13;16.75;;;10.30;;
47772;SDS011;33534;51.028;13.716;2022-12-07T08:43:10;13.25;;;9.00;;
47772;SDS011;33534;51.028;13.716;2022-12-07T08:48:37;14.65;;;8.02;;
47772;SDS011;33534;51.028;13.716;2022-12-07T08:51:33;17.35;;;9.05;;
47772;SDS011;33534;51.028;13.716;2022-12-07T08:57:07;11.43;;;8.68;;
47772;SDS011;33534;51.028;13.716;2022-12-07T08:59:45;8.98;;;6.13;;
47772;SDS011;33534;51.028;13.716;2022-12-07T09:07:49;12.50;;;8.15;;
47772;SDS011;33534;51.028;13.716;2022-12-07T09:10:41;10.63;;;7.43;;
47772;SDS011;33534;51.028;13.716;2022-12-07T09:15:36;8.68;;;6.50;;
47772;SDS011;33534;51.028;13.716;2022-12-07T09:18:02;11.73;;;7.88;;
47772;SDS011;33534;51.028;13.716;2022-12-07T09:20:31;10.50;;;6.68;;
47772;SDS011;33534;51.028;13.716;2022-12-07T09:23:05;9.48;;;6.93;;
47772;SDS011;33534;51.028;13.716;2022-12-07T09:25:32;10.27;;;6.88;;
47772;SDS011;33534;51.028;13.716;2022-12-07T09:31:25;9.45;;;5.68;;
47772;SDS011;33534;51.028;13.716;2022-12-07T09:36:51;12.45;;;7.10;;
47772;SDS011;33534;51.028;13.716;2022-12-07T09:45:06;11.77;;;5.95;;
47772;SDS011;33534;51.028;13.716;2022-12-07T09:47:36;10.45;;;5.97;;
47772;SDS011;33534;51.028;13.716;2022-12-07T09:50:28;7.80;;;5.20;;
47772;SDS011;33534;51.028;13.716;2022-12-07T09:53:08;7.97;;;5.47;;
47772;SDS011;33534;51.028;13.716;2022-12-07T09:55:41;7.70;;;5.25;;
47772;SDS011;33534;51.028;13.716;2022-12-07T09:58:18;9.50;;;4.82;;
47772;SDS011;33534;51.028;13.716;2022-12-07T10:00:52;6.75;;;5.40;;
47772;SDS011;33534;51.028;13.716;2022-12-07T10:03:22;8.32;;;5.47;;
47772;SDS011;33534;51.028;13.716;2022-12-07T10:08:46;9.77;;;5.43;;
47772;SDS011;33534;51.028;13.716;2022-12-07T10:11:22;10.48;;;5.63;;
47772;SDS011;33534;51.028;13.716;2022-12-07T10:14:10;11.07;;;5.47;;
47772;SDS011;33534;51.028;13.716;2022-12-07T10:16:56;8.65;;;5.43;;
47772;SDS011;33534;51.028;13.716;2022-12-07T10:19:23;8.25;;;5.32;;
47772;SDS011;33534;51.028;13.716;2022-12-07T10:21:59;9.20;;;4.97;;
47772;SDS011;33534;51.028;13.716;2022-12-07T10:24:34;12.90;;;5.68;;
47772;SDS011;33534;51.028;13.716;2022-12-07T10:29:51;13.45;;;5.88;;
47772;SDS011;33534;51.028;13.716;2022-12-07T10:35:36;10.57;;;5.38;;
47772;SDS011;33534;51.028;13.716;2022-12-07T10:38:19;10.00;;;5.32;;
47772;SDS011;33534;51.028;13.716;2022-12-07T10:40:45;7.95;;;5.22;;
47772;SDS011;33534;51.028;13.716;2022-12-07T10:56:38;8.90;;;5.60;;
47772;SDS011;33534;51.028;13.716;2022-12-07T11:01:39;10.57;;;5.13;;
47772;SDS011;33534;51.028;13.716;2022-12-07T11:06:39;7.95;;;4.95;;
47772;SDS011;33534;51.028;13.716;2022-12-07T11:17:02;13.98;;;6.03;;
47772;SDS011;33534;51.028;13.716;2022-12-07T11:19:49;7.85;;;4.35;;
47772;SDS011;33534;51.028;13.716;2022-12-07T11:22:25;10.10;;;4.97;;
47772;SDS011;33534;51.028;13.716;2022-12-07T11:25:02;11.93;;;5.00;;
47772;SDS011;33534;51.028;13.716;2022-12-07T11:27:41;9.73;;;5.63;;
47772;SDS011;33534;51.028;13.716;2022-12-07T11:35:25;11.88;;;6.22;;
47772;SDS011;33534;51.028;13.716;2022-12-07T11:40:43;11.63;;;6.90;;
47772;SDS011;33534;51.028;13.716;2022-12-07T11:46:22;15.23;;;8.00;;
47772;SDS011;33534;51.028;13.716;2022-12-07T11:51:35;16.58;;;8.90;;
47772;SDS011;33534;51.028;13.716;2022-12-07T11:54:04;13.95;;;8.20;;
47772;SDS011;33534;51.028;13.716;2022-12-07T11:56:34;16.85;;;8.95;;
47772;SDS011;33534;51.028;13.716;2022-12-07T11:59:09;15.55;;;9.20;;
47772;SDS011;33534;51.028;13.716;2022-12-07T12:06:39;17.70;;;10.00;;
47772;SDS011;33534;51.028;13.716;2022-12-07T12:09:09;16.73;;;9.23;;
47772;SDS011;33534;51.028;13.716;2022-12-07T12:19:31;11.80;;;6.88;;
47772;SDS011;33534;51.028;13.716;2022-12-07T12:22:15;17.60;;;7.57;;
47772;SDS011;33534;51.028;13.716;2022-12-07T12:24:43;9.55;;;6.35;;
47772;SDS011;33534;51.028;13.716;2022-12-07T12:29:55;11.25;;;6.28;;
47772;SDS011;33534;51.028;13.716;2022-12-07T12:32:30;10.68;;;5.93;;
47772;SDS011;33534;51.028;13.716;2022-12-07T12:50:44;5.90;;;3.15;;
47772;SDS011;33534;51.028;13.716;2022-12-07T13:30:34;15.38;;;8.18;;
47772;SDS011;33534;51.028;13.716;2022-12-07T14:00:49;11.25;;;6.85;;
47772;SDS011;33534;51.028;13.716;2022-12-07T14:03:46;13.27;;;7.93;;
47772;SDS011;33534;51.028;13.716;2022-12-07T14:10:03;14.30;;;7.65;;
47772;SDS011;33534;51.028;13.716;2022-12-07T14:52:05;8.40;;;5.03;;
47772;SDS011;33534;51.028;13.716;2022-12-07T15:13:51;14.10;;;4.03;;
47772;SDS011;33534;51.028;13.716;2022-12-07T15:30:15;10.65;;;4.07;;
47772;SDS011;33534;51.028;13.716;2022-12-07T15:33:13;5.90;;;3.22;;
47772;SDS011;33534;51.028;13.716;2022-12-07T16:11:18;9.95;;;3.97;;
47772;SDS011;33534;51.028;13.716;2022-12-07T16:49:22;6.38;;;3.72;;
47772;SDS011;33534;51.028;13.716;2022-12-07T16:52:40;11.00;;;5.25;;
47772;SDS011;33534;51.028;13.716;2022-12-07T17:05:07;6.43;;;3.25;;
47772;SDS011;33534;51.028;13.716;2022-12-07T17:07:41;7.88;;;3.53;;
47772;SDS011;33534;51.028;13.716;2022-12-07T17:20:06;10.43;;;6.38;;
47772;SDS011;33534;51.028;13.716;2022-12-07T17:35:25;9.05;;;3.83;;
47772;SDS011;33534;51.028;13.716;2022-12-07T17:40:59;8.23;;;5.38;;
47772;SDS011;33534;51.028;13.716;2022-12-07T17:46:56;7.47;;;4.00;;
47772;SDS011;33534;51.028;13.716;2022-12-07T17:52:42;9.77;;;4.25;;
47772;SDS011;33534;51.028;13.716;2022-12-07T17:55:34;6.82;;;4.63;;
47772;SDS011;33534;51.028;13.716;2022-12-07T17:58:32;10.50;;;4.75;;
47772;SDS011;33534;51.028;13.716;2022-12-07T18:07:26;7.28;;;4.50;;
47772;SDS011;33534;51.028;13.716;2022-12-07T18:12:57;5.68;;;3.75;;
47772;SDS011;33534;51.028;13.716;2022-12-07T18:27:31;12.02;;;3.60;;
47772;SDS011;33534;51.028;13.716;2022-12-07T18:35:58;6.93;;;3.33;;
47772;SDS011;33534;51.028;13.716;2022-12-07T19:03:44;7.75;;;2.78;;
47772;SDS011;33534;51.028;13.716;2022-12-07T19:17:32;5.55;;;3.05;;
47772;SDS011;33534;51.028;13.716;2022-12-07T19:23:18;8.93;;;4.00;;
47772;SDS011;33534;51.028;13.716;2022-12-07T19:32:23;10.93;;;4.07;;
47772;SDS011;33534;51.028;13.716;2022-12-07T19:38:06;10.63;;;5.07;;
47772;SDS011;33534;51.028;13.716;2022-12-07T19:49:45;11.23;;;5.55;;
47772;SDS011;33534;51.028;13.716;2022-12-07T19:55:32;8.85;;;5.00;;
47772;SDS011;33534;51.028;13.716;2022-12-07T20:01:27;12.73;;;4.50;;
47772;SDS011;33534;51.028;13.716;2022-12-07T20:13:40;7.95;;;3.80;;
47772;SDS011;33534;51.028;13.716;2022-12-07T20:32:11;8.70;;;3.65;;
47772;SDS011;33534;51.028;13.716;2022-12-07T21:00:09;9.02;;;4.45;;
47772;SDS011;33534;51.028;13.716;2022-12-07T21:02:37;8.32;;;4.25;;
47772;SDS011;33534;51.028;13.716;2022-12-07T21:05:13;12.63;;;4.53;;
47772;SDS011;33534;51.028;13.716;2022-12-07T21:17:08;9.95;;;4.90;;
47772;SDS011;33534;51.028;13.716;2022-12-07T21:26:15;10.93;;;5.07;;
47772;SDS011;33534;51.028;13.716;2022-12-07T21:35:14;8.45;;;5.25;;
47772;SDS011;33534;51.028;13.716;2022-12-07T21:38:01;10.82;;;5.55;;
47772;SDS011;33534;51.028;13.716;2022-12-07T22:02:22;12.10;;;5.57;;
47772;SDS011;33534;51.028;13.716;2022-12-07T22:23:50;10.52;;;4.95;;
47772;SDS011;33534;51.028;13.716;2022-12-07T22:26:30;11.35;;;5.18;;
47772;SDS011;33534;51.028;13.716;2022-12-07T22:29:33;9.10;;;4.28;;
47772;SDS011;33534;51.028;13.716;2022-12-07T22:32:31;11.07;;;4.30;;
47772;SDS011;33534;51.028;13.716;2022-12-07T22:49:35;5.95;;;3.60;;
47772;SDS011;33534;51.028;13.716;2022-12-07T22:55:17;8.00;;;3.58;;
47772;SDS011;33534;51.028;13.716;2022-12-07T22:57:49;8.25;;;4.07;;
47772;SDS011;33534;51.028;13.716;2022-12-07T23:00:30;7.90;;;4.03;;
47772;SDS011;33534;51.028;13.716;2022-12-07T23:03:07;7.32;;;3.90;;
47772;SDS011;33534;51.028;13.716;2022-12-07T23:05:55;8.98;;;4.10;;
47772;SDS011;33534;51.028;13.716;2022-12-07T23:09:06;8.30;;;4.00;;
47772;SDS011;33534;51.028;13.716;2022-12-07T23:11:34;12.13;;;4.50;;
47772;SDS011;33534;51.028;13.716;2022-12-07T23:14:20;12.27;;;4.85;;
47772;SDS011;33534;51.028;13.716;2022-12-07T23:16:49;7.53;;;4.30;;
47772;SDS011;33534;51.028;13.716;2022-12-07T23:19:16;8.40;;;4.30;;
47772;SDS011;33534;51.028;13.716;2022-12-07T23:21:44;12.82;;;4.18;;
47772;SDS011;33534;51.028;13.716;2022-12-07T23:24:11;10.52;;;4.55;;
47772;SDS011;33534;51.028;13.716;2022-12-07T23:26:38;7.95;;;4.18;;
47772;SDS011;33534;51.028;13.716;2022-12-07T23:29:05;5.47;;;4.15;;
47772;SDS011;33534;51.028;13.716;2022-12-07T23:31:31;7.70;;;4.60;;
47772;SDS011;33534;51.028;13.716;2022-12-07T23:33:57;8.13;;;4.45;;
47772;SDS011;33534;51.028;13.716;2022-12-07T23:36:24;7.45;;;4.00;;
47772;SDS011;33534;51.028;13.716;2022-12-07T23:38:51;9.68;;;4.78;;
47772;SDS011;33534;51.028;13.716;2022-12-07T23:41:21;8.45;;;4.63;;
47772;SDS011;33534;51.028;13.716;2022-12-07T23:43:47;7.70;;;4.10;;
47772;SDS011;33534;51.028;13.716;2022-12-07T23:46:17;9.27;;;4.40;;
47772;SDS011;33534;51.028;13.716;2022-12-07T23:48:44;9.05;;;4.82;;
47772;SDS011;33534;51.028;13.716;2022-12-07T23:51:10;10.15;;;5.20;;
47772;SDS011;33534;51.028;13.716;2022-12-07T23:53:41;8.63;;;4.32;;
47772;SDS011;33534;51.028;13.716;2022-12-07T23:56:13;12.30;;;4.50;;
47772;SDS011;33534;51.028;13.716;2022-12-07T23:58:39;11.90;;;4.75;;
